createdAt,value
2022-12-31T00:01:34.040Z,4.21
2022-12-31T00:04:02.170Z,4.19
2022-12-31T00:06:32.105Z,4.15
2022-12-31T00:09:03.838Z,4.14
2022-12-31T00:11:33.022Z,4.08
2022-12-31T00:14:01.179Z,4.09
2022-12-31T00:16:31.198Z,4.12
2022-12-31T00:19:01.898Z,4.16
2022-12-31T00:21:33.075Z,4.15
2022-12-31T00:24:01.264Z,4.09
2022-12-31T00:26:31.673Z,4.18
2022-12-31T00:29:01.263Z,4.24
2022-12-31T00:31:38.595Z,4.26
2022-12-31T00:34:08.556Z,4.28
2022-12-31T00:36:39.654Z,4.24
2022-12-31T00:39:09.467Z,4.26
2022-12-31T00:41:37.631Z,4.25
2022-12-31T00:44:05.906Z,4.31
2022-12-31T00:49:02.073Z,4.32
2022-12-31T00:51:31.671Z,4.32
2022-12-31T00:54:06.222Z,4.32
2022-12-31T00:56:34.565Z,4.31
2022-12-31T00:59:02.773Z,4.36
2022-12-31T01:01:32.639Z,4.29
2022-12-31T01:04:04.898Z,4.33
2022-12-31T01:06:34.649Z,4.25
2022-12-31T01:09:02.868Z,4.22
2022-12-31T01:11:31.500Z,4.28
2022-12-31T01:14:01.810Z,4.31
2022-12-31T01:16:32.231Z,4.26
2022-12-31T01:19:01.764Z,4.33
2022-12-31T01:21:30.533Z,4.28
2022-12-31T01:24:01.119Z,4.33
2022-12-31T01:26:29.806Z,4.25
2022-12-31T01:28:58.230Z,4.26
2022-12-31T01:31:26.886Z,4.24
2022-12-31T01:33:55.747Z,4.22
2022-12-31T01:36:26.606Z,4.15
2022-12-31T01:38:57.131Z,4.16
2022-12-31T01:41:31.568Z,4.25
2022-12-31T01:44:01.425Z,4.26
2022-12-31T01:46:36.239Z,4.28
2022-12-31T01:49:11.858Z,4.35
2022-12-31T01:51:42.301Z,4.21
2022-12-31T01:54:12.879Z,4.24
2022-12-31T01:56:44.496Z,4.24
2022-12-31T01:59:15.386Z,4.28
2022-12-31T02:01:46.785Z,4.32
2022-12-31T02:04:15.963Z,4.42
2022-12-31T02:06:48.434Z,4.38
2022-12-31T02:09:17.048Z,4.39
2022-12-31T02:11:46.612Z,4.39
2022-12-31T02:14:18.479Z,4.33
2022-12-31T02:16:55.797Z,4.24
2022-12-31T02:20:00.168Z,4.32
2022-12-31T02:22:53.322Z,4.24
2022-12-31T02:25:38.049Z,4.24
2022-12-31T02:28:21.439Z,4.32
2022-12-31T02:30:55.554Z,4.33
2022-12-31T02:33:33.532Z,4.38
2022-12-31T02:36:06.647Z,4.33
2022-12-31T02:38:40.124Z,4.36
2022-12-31T02:41:33.634Z,4.45
2022-12-31T02:44:01.873Z,4.36
2022-12-31T02:46:39.420Z,4.31
2022-12-31T02:49:15.333Z,4.32
2022-12-31T02:51:51.347Z,4.38
2022-12-31T02:54:24.410Z,4.38
2022-12-31T02:57:02.163Z,4.42
2022-12-31T02:59:56.518Z,4.35
2022-12-31T03:02:29.184Z,4.36
2022-12-31T03:04:58.918Z,4.32
2022-12-31T03:07:29.052Z,4.35
2022-12-31T03:09:57.491Z,4.39
2022-12-31T03:12:46.169Z,4.41
2022-12-31T03:15:21.863Z,4.41
2022-12-31T03:17:58.025Z,4.48
2022-12-31T03:20:46.638Z,4.52
2022-12-31T03:23:19.088Z,4.49
2022-12-31T03:25:46.752Z,4.39
2022-12-31T03:28:18.750Z,4.36
2022-12-31T03:30:49.455Z,4.43
2022-12-31T03:33:19.737Z,4.33
2022-12-31T03:35:49.041Z,4.35
2022-12-31T03:38:17.925Z,4.33
2022-12-31T03:40:47.927Z,4.32
2022-12-31T03:43:16.285Z,4.38
2022-12-31T03:45:44.503Z,4.38
2022-12-31T03:48:12.737Z,4.38
2022-12-31T03:50:42.297Z,4.39
2022-12-31T03:53:11.268Z,4.36
2022-12-31T03:55:39.474Z,4.26
2022-12-31T03:58:07.905Z,4.26
2022-12-31T04:00:36.075Z,4.31
2022-12-31T04:03:04.320Z,4.32
2022-12-31T04:05:33.785Z,4.48
2022-12-31T04:08:03.357Z,4.28
2022-12-31T04:10:31.556Z,4.18
2022-12-31T04:13:03.126Z,4.19
2022-12-31T04:15:31.361Z,4.24
2022-12-31T04:17:59.570Z,4.25
2022-12-31T04:20:27.806Z,4.31
2022-12-31T04:22:55.941Z,4.29
2022-12-31T04:25:25.507Z,4.29
2022-12-31T04:27:53.649Z,4.26
2022-12-31T04:30:21.745Z,4.28
2022-12-31T04:32:49.903Z,4.24
2022-12-31T04:35:18.264Z,4.28
2022-12-31T04:37:46.399Z,4.26
2022-12-31T04:40:14.612Z,4.25
2022-12-31T04:42:44.743Z,4.26
2022-12-31T04:45:13.142Z,4.29
2022-12-31T04:47:41.284Z,4.31
2022-12-31T04:50:11.543Z,4.33
2022-12-31T04:52:42.893Z,4.29
2022-12-31T04:55:11.640Z,4.32
2022-12-31T04:57:39.895Z,4.26
2022-12-31T05:00:10.939Z,4.22
2022-12-31T05:02:39.321Z,4.24
2022-12-31T05:05:08.449Z,4.33
2022-12-31T05:07:36.628Z,4.39
2022-12-31T05:10:05.951Z,4.38
2022-12-31T05:12:34.231Z,4.33
2022-12-31T05:15:02.579Z,4.32
2022-12-31T05:17:32.197Z,4.41
2022-12-31T05:20:00.641Z,4.41
2022-12-31T05:22:31.261Z,4.36
2022-12-31T05:25:00.689Z,4.26
2022-12-31T05:27:31.247Z,4.24
2022-12-31T05:29:59.732Z,4.14
2022-12-31T05:32:28.288Z,4.09
2022-12-31T05:34:58.102Z,4.01
2022-12-31T05:37:26.442Z,3.95
2022-12-31T05:39:54.679Z,3.86
2022-12-31T05:42:27.265Z,3.81
2022-12-31T05:44:55.547Z,3.77
2022-12-31T05:47:24.111Z,3.73
2022-12-31T05:49:52.325Z,3.73
2022-12-31T05:52:22.054Z,3.83
2022-12-31T05:54:50.243Z,3.90
2022-12-31T05:57:18.417Z,3.95
2022-12-31T05:59:46.623Z,3.98
2022-12-31T06:02:14.983Z,4.02
2022-12-31T06:04:43.176Z,3.97
2022-12-31T06:07:11.455Z,4.08
2022-12-31T06:09:41.127Z,4.02
2022-12-31T06:12:10.294Z,3.97
2022-12-31T06:14:43.782Z,3.98
2022-12-31T06:17:13.831Z,4.18
2022-12-31T06:19:42.119Z,4.04
2022-12-31T06:22:10.362Z,3.98
2022-12-31T06:24:38.469Z,3.93
2022-12-31T06:27:08.146Z,3.91
2022-12-31T06:29:36.294Z,3.91
2022-12-31T06:32:04.665Z,3.94
2022-12-31T06:34:32.841Z,3.90
2022-12-31T06:37:00.947Z,3.97
2022-12-31T06:39:29.352Z,3.97
2022-12-31T06:41:57.813Z,3.95
2022-12-31T06:44:27.416Z,3.95
2022-12-31T06:46:55.640Z,3.97
2022-12-31T06:49:23.850Z,3.97
2022-12-31T06:51:52.016Z,3.95
2022-12-31T06:54:20.647Z,3.91
2022-12-31T06:56:49.290Z,3.90
2022-12-31T06:59:26.370Z,3.93
2022-12-31T07:02:12.816Z,3.97
2022-12-31T07:05:14.208Z,3.97
2022-12-31T07:07:56.626Z,4.01
2022-12-31T07:10:37.335Z,4.02
2022-12-31T07:13:18.673Z,4.18
2022-12-31T07:16:01.742Z,4.21
2022-12-31T07:18:38.152Z,4.26
2022-12-31T07:21:11.937Z,4.21
2022-12-31T07:23:40.650Z,4.06
2022-12-31T07:26:21.379Z,4.02
2022-12-31T07:29:00.499Z,4.05
2022-12-31T07:31:48.116Z,3.99
2022-12-31T07:34:26.544Z,3.99
2022-12-31T07:37:04.551Z,3.97
2022-12-31T07:39:40.346Z,4.04
2022-12-31T07:42:16.287Z,4.02
2022-12-31T07:44:56.494Z,4.04
2022-12-31T07:47:26.943Z,4.14
2022-12-31T07:49:58.262Z,4.15
2022-12-31T07:52:27.390Z,4.15
2022-12-31T07:54:55.631Z,4.19
2022-12-31T07:57:27.470Z,4.29
2022-12-31T08:00:06.165Z,4.36
2022-12-31T08:03:05.061Z,4.39
2022-12-31T08:05:41.043Z,4.46
2022-12-31T08:08:17.023Z,4.46
2022-12-31T08:10:57.849Z,4.50
2022-12-31T08:13:27.000Z,4.59
2022-12-31T08:15:56.156Z,4.59
2022-12-31T08:18:24.792Z,4.66
2022-12-31T08:21:05.639Z,4.64
2022-12-31T08:23:48.336Z,4.64
2022-12-31T08:26:28.362Z,4.62
2022-12-31T08:29:05.929Z,4.70
2022-12-31T08:31:45.322Z,4.70
2022-12-31T08:34:24.135Z,4.67
2022-12-31T08:37:01.461Z,4.77
2022-12-31T08:39:45.350Z,4.85
2022-12-31T08:42:23.357Z,4.84
2022-12-31T08:45:00.729Z,4.91
2022-12-31T08:47:39.993Z,4.90
2022-12-31T08:50:14.459Z,4.97
2022-12-31T08:52:45.898Z,4.98
2022-12-31T08:55:16.744Z,5.05
2022-12-31T08:57:53.600Z,5.14
2022-12-31T09:00:23.143Z,5.14
2022-12-31T09:03:17.981Z,5.10
2022-12-31T09:05:54.884Z,5.17
2022-12-31T09:08:31.767Z,5.17
2022-12-31T09:11:07.715Z,5.28
2022-12-31T09:13:40.606Z,5.15
2022-12-31T09:16:15.266Z,5.29
2022-12-31T09:18:47.170Z,5.31
2022-12-31T09:21:17.112Z,5.45
2022-12-31T09:23:47.336Z,5.50
2022-12-31T09:26:38.854Z,5.50
2022-12-31T09:29:14.306Z,5.56
2022-12-31T09:31:51.090Z,5.56
2022-12-31T09:34:27.163Z,5.62
2022-12-31T09:36:58.147Z,5.76
2022-12-31T09:39:34.198Z,5.71
2022-12-31T09:42:26.784Z,5.78
2022-12-31T09:45:23.993Z,5.81
2022-12-31T09:48:33.992Z,5.87
2022-12-31T09:51:21.678Z,6.00
2022-12-31T09:54:15.087Z,6.07
2022-12-31T09:56:57.164Z,6.05
2022-12-31T09:59:37.456Z,6.03
2022-12-31T10:02:21.648Z,6.13
2022-12-31T10:05:01.352Z,6.18
2022-12-31T10:07:50.382Z,6.21
2022-12-31T10:10:25.214Z,6.25
2022-12-31T10:13:38.158Z,6.22
2022-12-31T10:16:39.601Z,6.35
2022-12-31T10:19:36.492Z,6.41
2022-12-31T10:22:12.203Z,6.36
2022-12-31T10:24:56.097Z,6.41
2022-12-31T10:27:50.633Z,6.50
2022-12-31T10:30:22.540Z,6.54
2022-12-31T10:33:01.518Z,6.50
2022-12-31T10:35:38.183Z,6.52
2022-12-31T10:38:19.644Z,6.53
2022-12-31T10:41:21.430Z,6.52
2022-12-31T10:44:32.333Z,6.54
2022-12-31T10:47:35.352Z,6.61
2022-12-31T10:50:40.268Z,6.53
2022-12-31T10:53:56.211Z,6.66
2022-12-31T10:56:55.357Z,6.63
2022-12-31T10:59:54.328Z,6.66
2022-12-31T11:03:01.709Z,6.69
2022-12-31T11:06:20.040Z,6.80
2022-12-31T11:09:32.705Z,6.87
2022-12-31T11:12:09.784Z,6.99
2022-12-31T11:14:59.131Z,6.91
2022-12-31T11:17:37.090Z,6.94
2022-12-31T11:20:24.158Z,7.04
2022-12-31T11:23:09.611Z,6.99
2022-12-31T11:25:50.566Z,7.03
2022-12-31T11:28:51.089Z,7.05
2022-12-31T11:31:33.865Z,7.08
2022-12-31T11:34:19.170Z,7.11
2022-12-31T11:37:02.575Z,7.19
2022-12-31T11:39:48.441Z,7.18
2022-12-31T11:42:25.981Z,7.18
2022-12-31T11:45:00.895Z,7.24
2022-12-31T11:48:28.702Z,7.24
2022-12-31T11:50:48.048Z,7.22
2022-12-31T11:53:33.069Z,7.25
2022-12-31T11:56:18.983Z,7.35
2022-12-31T11:58:51.195Z,7.38
2022-12-31T12:01:26.138Z,7.44
2022-12-31T12:03:55.465Z,7.58
2022-12-31T12:06:28.675Z,7.73
2022-12-31T12:09:01.176Z,7.93
2022-12-31T12:11:36.038Z,8.08
2022-12-31T12:14:22.374Z,8.18
2022-12-31T12:16:59.162Z,8.25
2022-12-31T12:19:34.846Z,8.41
2022-12-31T12:22:12.862Z,8.55
2022-12-31T12:24:41.681Z,8.58
2022-12-31T12:27:25.205Z,8.51
2022-12-31T12:29:53.433Z,8.42
2022-12-31T12:32:25.064Z,8.45
2022-12-31T12:34:54.216Z,8.42
2022-12-31T12:37:33.514Z,8.41
2022-12-31T12:40:03.372Z,8.46
2022-12-31T12:42:33.654Z,8.49
2022-12-31T12:45:06.339Z,8.45
2022-12-31T12:47:35.708Z,8.38
2022-12-31T12:50:05.146Z,8.37
2022-12-31T12:53:09.382Z,8.38
2022-12-31T12:55:48.028Z,8.44
2022-12-31T12:58:40.039Z,8.52
2022-12-31T13:01:16.091Z,8.61
2022-12-31T13:07:11.731Z,8.62
2022-12-31T13:09:55.288Z,8.73
2022-12-31T13:12:48.976Z,8.79
2022-12-31T13:15:30.120Z,8.79
2022-12-31T13:18:09.137Z,8.76
2022-12-31T13:20:46.263Z,8.69
2022-12-31T13:23:24.101Z,8.63
2022-12-31T13:26:03.174Z,8.68
2022-12-31T13:28:33.297Z,8.65
2022-12-31T13:31:07.255Z,8.68
2022-12-31T13:33:41.461Z,8.70
2022-12-31T13:36:11.687Z,8.65
2022-12-31T13:38:43.489Z,8.66
2022-12-31T13:41:19.157Z,8.68
2022-12-31T13:43:54.793Z,8.70
2022-12-31T13:46:33.527Z,8.70
2022-12-31T13:49:05.472Z,8.72
2022-12-31T13:51:42.355Z,8.69
2022-12-31T13:54:23.267Z,8.72
2022-12-31T13:56:53.374Z,8.70
2022-12-31T13:59:27.536Z,8.69
2022-12-31T14:02:02.004Z,8.63
2022-12-31T14:04:35.146Z,8.65
2022-12-31T14:07:08.905Z,8.69
2022-12-31T14:09:38.513Z,8.75
2022-12-31T14:12:20.655Z,8.68
2022-12-31T14:14:55.670Z,8.70
2022-12-31T14:17:34.588Z,8.68
2022-12-31T14:20:18.314Z,8.65
2022-12-31T14:22:53.162Z,8.65
2022-12-31T14:25:30.753Z,8.66
2022-12-31T14:28:03.083Z,8.66
2022-12-31T14:30:34.331Z,8.69
2022-12-31T14:33:16.672Z,8.69
2022-12-31T14:36:10.623Z,8.69
2022-12-31T14:38:54.179Z,8.46
2022-12-31T14:41:44.730Z,8.35
2022-12-31T14:44:28.456Z,8.31
2022-12-31T14:47:13.226Z,8.44
2022-12-31T14:49:51.288Z,8.49
2022-12-31T14:52:25.278Z,8.48
2022-12-31T14:55:22.975Z,8.21
2022-12-31T15:00:41.191Z,8.31
2022-12-31T15:03:25.548Z,8.35
2022-12-31T15:06:00.257Z,8.32
2022-12-31T15:08:40.899Z,8.10
2022-12-31T15:11:23.885Z,7.98
2022-12-31T15:14:18.243Z,8.05
2022-12-31T15:16:56.030Z,8.05
2022-12-31T15:19:53.391Z,8.01
2022-12-31T15:22:33.529Z,7.82
2022-12-31T15:25:03.174Z,7.83
2022-12-31T15:27:36.952Z,7.86
2022-12-31T15:30:07.383Z,7.90
2022-12-31T15:32:38.167Z,7.91
2022-12-31T15:35:27.412Z,7.89
2022-12-31T15:38:02.287Z,7.89
2022-12-31T15:40:31.811Z,7.87
2022-12-31T15:43:10.474Z,7.90
2022-12-31T15:45:40.929Z,7.82
2022-12-31T15:48:16.585Z,7.79
2022-12-31T15:50:46.107Z,7.79
2022-12-31T15:53:28.439Z,7.83
2022-12-31T15:55:59.434Z,7.86
2022-12-31T15:58:32.185Z,7.80
2022-12-31T16:01:09.920Z,7.83
2022-12-31T16:03:38.586Z,7.94
2022-12-31T16:06:13.366Z,7.97
2022-12-31T16:08:47.019Z,7.82
2022-12-31T16:11:16.276Z,7.63
2022-12-31T16:13:47.776Z,7.61
2022-12-31T16:16:23.579Z,7.58
2022-12-31T16:18:53.304Z,7.48
2022-12-31T16:21:27.098Z,7.46
2022-12-31T16:23:58.441Z,7.46
2022-12-31T16:26:32.668Z,7.46
2022-12-31T16:29:01.507Z,7.55
2022-12-31T16:31:33.098Z,7.54
2022-12-31T16:34:06.281Z,7.62
2022-12-31T16:36:35.537Z,7.59
2022-12-31T16:39:25.459Z,7.55
2022-12-31T16:42:07.956Z,7.56
2022-12-31T16:44:36.566Z,7.48
2022-12-31T16:47:07.234Z,7.42
2022-12-31T16:49:39.060Z,7.49
2022-12-31T16:52:09.974Z,7.32
2022-12-31T16:54:45.713Z,7.32
2022-12-31T16:57:21.331Z,7.25
2022-12-31T16:59:53.252Z,7.29
2022-12-31T17:02:24.296Z,7.25
2022-12-31T17:04:56.387Z,7.21
2022-12-31T17:07:43.629Z,7.07
2022-12-31T17:10:21.631Z,7.29
2022-12-31T17:15:46.229Z,7.21
2022-12-31T17:18:19.717Z,7.17
2022-12-31T17:20:48.994Z,7.03
2022-12-31T17:23:25.249Z,6.97
2022-12-31T17:26:02.118Z,6.87
2022-12-31T17:28:38.669Z,6.77
2022-12-31T17:31:29.206Z,6.75
2022-12-31T17:34:08.322Z,6.57
2022-12-31T17:36:38.570Z,6.46
2022-12-31T17:39:18.624Z,6.45
2022-12-31T17:41:50.829Z,6.36
2022-12-31T17:44:22.735Z,6.21
2022-12-31T17:46:52.133Z,6.22
2022-12-31T17:49:27.218Z,6.17
2022-12-31T17:51:55.513Z,6.17
2022-12-31T17:54:23.727Z,6.00
2022-12-31T17:56:53.769Z,5.89
2022-12-31T17:59:24.885Z,5.94
2022-12-31T18:01:53.301Z,5.80
2022-12-31T18:04:21.878Z,5.70
2022-12-31T18:06:50.102Z,5.63
2022-12-31T18:09:18.334Z,5.55
2022-12-31T18:11:47.027Z,5.46
2022-12-31T18:14:17.505Z,5.42
2022-12-31T18:16:46.104Z,5.38
2022-12-31T18:19:45.820Z,5.36
2022-12-31T18:22:08.188Z,5.34
2022-12-31T18:24:36.627Z,5.76
2022-12-31T18:27:05.377Z,5.87
2022-12-31T18:29:36.438Z,5.86
2022-12-31T18:32:05.091Z,5.83
2022-12-31T18:34:33.209Z,5.63
2022-12-31T18:37:01.477Z,5.67
2022-12-31T18:39:29.833Z,5.53
2022-12-31T18:41:58.015Z,5.55
2022-12-31T18:44:26.221Z,5.86
2022-12-31T18:46:55.842Z,5.70
2022-12-31T18:49:24.191Z,5.70
2022-12-31T18:51:54.318Z,5.66
2022-12-31T18:54:22.673Z,5.63
2022-12-31T18:56:56.811Z,5.62
2022-12-31T18:59:26.581Z,5.63
2022-12-31T19:01:56.412Z,5.59
2022-12-31T19:04:28.297Z,5.55
2022-12-31T19:06:57.233Z,5.60
2022-12-31T19:12:16.740Z,5.70
2022-12-31T19:14:45.666Z,5.67
2022-12-31T19:17:15.656Z,5.69
2022-12-31T19:19:43.965Z,5.67
2022-12-31T19:22:16.322Z,5.87
2022-12-31T19:24:44.780Z,5.86
2022-12-31T19:27:17.102Z,5.81
2022-12-31T19:29:45.695Z,5.60
2022-12-31T19:32:15.298Z,5.49
2022-12-31T19:34:44.672Z,5.35
2022-12-31T19:37:22.259Z,5.36
2022-12-31T19:39:50.681Z,5.45
2022-12-31T19:42:19.000Z,5.53
2022-12-31T19:44:47.302Z,5.22
2022-12-31T19:47:18.054Z,5.17
2022-12-31T19:49:46.768Z,5.12
2022-12-31T19:52:15.009Z,5.12
2022-12-31T19:54:43.248Z,5.22
2022-12-31T19:57:11.468Z,5.36
2022-12-31T19:59:39.750Z,5.32
2022-12-31T20:02:08.655Z,5.39
2022-12-31T20:04:38.439Z,5.38
2022-12-31T20:07:06.777Z,5.35
2022-12-31T20:09:35.088Z,5.34
2022-12-31T20:12:03.407Z,5.34
2022-12-31T20:14:33.008Z,5.34
2022-12-31T20:17:01.400Z,5.39
2022-12-31T20:19:30.743Z,5.42
2022-12-31T20:22:00.878Z,5.38
2022-12-31T20:24:31.315Z,5.36
2022-12-31T20:27:00.116Z,5.36
2022-12-31T20:29:28.721Z,5.48
2022-12-31T20:32:01.840Z,5.81
2022-12-31T20:34:30.923Z,5.84
2022-12-31T20:37:00.699Z,5.84
2022-12-31T20:39:29.068Z,5.77
2022-12-31T20:41:57.423Z,5.80
2022-12-31T20:44:25.889Z,5.74
2022-12-31T20:46:54.310Z,5.76
2022-12-31T20:49:37.518Z,5.63
2022-12-31T20:52:12.683Z,5.57
2022-12-31T20:54:41.478Z,5.56
2022-12-31T20:57:10.121Z,5.45
2022-12-31T20:59:38.613Z,5.29
2022-12-31T21:02:29.490Z,5.27
2022-12-31T21:04:56.098Z,5.34
2022-12-31T21:07:26.159Z,5.21
2022-12-31T21:09:54.413Z,5.27
2022-12-31T21:12:40.405Z,5.50
2022-12-31T21:15:09.991Z,5.53
2022-12-31T21:17:38.219Z,5.53
2022-12-31T21:20:08.000Z,5.48
2022-12-31T21:22:37.777Z,5.38
2022-12-31T21:25:06.897Z,5.21
2022-12-31T21:27:37.055Z,5.12
2022-12-31T21:30:22.093Z,5.10
2022-12-31T21:32:50.618Z,5.32
2022-12-31T21:38:10.524Z,5.52
2022-12-31T21:40:40.163Z,5.60
2022-12-31T21:43:08.722Z,5.67
2022-12-31T21:45:37.075Z,5.32
2022-12-31T21:48:25.194Z,5.00
2022-12-31T21:50:55.192Z,4.80
2022-12-31T21:53:32.291Z,4.54
2022-12-31T21:56:11.676Z,4.42
2022-12-31T21:58:41.952Z,4.38
2022-12-31T22:01:34.162Z,4.36
2022-12-31T22:04:02.900Z,4.42
2022-12-31T22:06:31.454Z,4.74
2022-12-31T22:09:01.448Z,4.69
2022-12-31T22:11:30.583Z,4.83
2022-12-31T22:13:59.095Z,5.10
2022-12-31T22:16:27.678Z,5.36
2022-12-31T22:18:57.244Z,5.43
2022-12-31T22:21:32.015Z,5.46
2022-12-31T22:24:03.197Z,5.28
2022-12-31T22:26:31.618Z,5.27
2022-12-31T22:29:00.226Z,5.14
2022-12-31T22:31:33.134Z,5.10
2022-12-31T22:34:02.251Z,5.17
2022-12-31T22:36:30.884Z,5.05
2022-12-31T22:39:01.735Z,5.07
2022-12-31T22:41:30.660Z,4.83
2022-12-31T22:44:04.160Z,5.21
2022-12-31T22:46:33.911Z,5.07
2022-12-31T22:49:03.675Z,5.14
2022-12-31T22:51:56.550Z,5.45
2022-12-31T22:54:22.514Z,5.05
2022-12-31T22:56:51.350Z,4.97
2022-12-31T22:59:19.670Z,4.85
2022-12-31T23:01:48.356Z,4.77
2022-12-31T23:04:17.100Z,4.81
2022-12-31T23:06:47.448Z,4.77
2022-12-31T23:09:35.842Z,4.70
2022-12-31T23:12:09.796Z,4.71
2022-12-31T23:14:56.862Z,4.81
2022-12-31T23:17:44.480Z,4.77
2022-12-31T23:20:33.739Z,4.63
2022-12-31T23:23:12.608Z,4.77
2022-12-31T23:25:43.444Z,4.85
2022-12-31T23:28:17.512Z,4.91
2022-12-31T23:30:46.475Z,4.94
2022-12-31T23:33:17.473Z,4.94
2022-12-31T23:35:46.321Z,5.14
2022-12-31T23:38:16.791Z,5.34
2022-12-31T23:40:45.296Z,5.67
2022-12-31T23:43:21.186Z,5.76
2022-12-31T23:45:49.532Z,5.86
2022-12-31T23:48:17.880Z,5.74
2022-12-31T23:50:52.500Z,5.40
2022-12-31T23:53:21.581Z,5.27
2022-12-31T23:55:49.970Z,5.19
2022-12-31T23:58:19.798Z,5.48
